createdAt,value
2023-03-31T00:00:17.509Z,2.61
2023-03-31T00:01:17.294Z,2.45
2023-03-31T00:02:17.315Z,2.15
2023-03-31T00:03:17.359Z,2.32
2023-03-31T00:04:17.543Z,2.29
2023-03-31T00:05:17.282Z,2.06
2023-03-31T00:06:17.290Z,1.98
2023-03-31T00:07:17.300Z,2.28
2023-03-31T00:08:17.293Z,1.87
2023-03-31T00:09:17.480Z,2.12
2023-03-31T00:10:18.780Z,2.04
2023-03-31T00:11:17.318Z,2.55
2023-03-31T00:12:17.326Z,2.26
2023-03-31T00:13:17.311Z,2.41
2023-03-31T00:14:17.307Z,2.16
2023-03-31T00:15:17.304Z,2.21
2023-03-31T00:16:17.349Z,2.05
2023-03-31T00:17:17.300Z,2.23
2023-03-31T00:18:17.293Z,2.13
2023-03-31T00:19:17.781Z,1.84
2023-03-31T00:20:17.303Z,2.06
2023-03-31T00:21:17.297Z,2.43
2023-03-31T00:22:17.304Z,1.90
2023-03-31T00:23:17.299Z,2.61
2023-03-31T00:24:17.307Z,1.94
2023-03-31T00:25:17.261Z,1.81
2023-03-31T00:26:17.262Z,2.17
2023-03-31T00:27:17.257Z,1.96
2023-03-31T00:28:17.259Z,2.40
2023-03-31T00:29:16.896Z,2.31
2023-03-31T00:30:17.255Z,2.35
2023-03-31T00:31:16.955Z,2.31
2023-03-31T00:32:16.882Z,1.63
2023-03-31T00:33:16.886Z,1.85
2023-03-31T00:34:16.882Z,2.16
2023-03-31T00:35:16.882Z,2.39
2023-03-31T00:36:16.987Z,1.76
2023-03-31T00:37:16.873Z,2.21
2023-03-31T00:38:16.875Z,1.97
2023-03-31T00:39:16.880Z,2.02
2023-03-31T00:40:16.879Z,2.43
2023-03-31T00:41:16.880Z,2.10
2023-03-31T00:42:16.871Z,2.83
2023-03-31T00:43:16.860Z,2.21
2023-03-31T00:44:16.897Z,2.27
2023-03-31T00:45:16.864Z,2.21
2023-03-31T00:46:16.913Z,2.32
2023-03-31T00:47:16.860Z,2.22
2023-03-31T00:48:16.849Z,1.97
2023-03-31T00:49:16.847Z,2.09
2023-03-31T00:50:16.865Z,1.70
2023-03-31T00:51:16.847Z,2.05
2023-03-31T00:52:16.860Z,1.96
2023-03-31T00:53:16.858Z,1.85
2023-03-31T00:54:16.857Z,1.85
2023-03-31T00:55:16.858Z,2.31
2023-03-31T00:56:16.862Z,2.34
2023-03-31T00:57:16.889Z,1.68
2023-03-31T00:58:16.858Z,1.84
2023-03-31T00:59:16.856Z,2.29
2023-03-31T01:00:16.943Z,2.63
2023-03-31T01:01:16.894Z,2.46
2023-03-31T01:02:16.878Z,2.06
2023-03-31T01:03:16.953Z,2.16
2023-03-31T01:04:17.288Z,2.17
2023-03-31T01:05:17.314Z,2.11
2023-03-31T01:06:17.316Z,2.25
2023-03-31T01:07:17.315Z,2.10
2023-03-31T01:08:17.327Z,1.92
2023-03-31T01:09:17.312Z,2.05
2023-03-31T01:10:17.330Z,2.14
2023-03-31T01:11:17.321Z,2.01
2023-03-31T01:12:17.325Z,2.19
2023-03-31T01:13:17.318Z,2.37
2023-03-31T01:14:17.315Z,2.67
2023-03-31T01:15:17.329Z,1.98
2023-03-31T01:16:17.411Z,2.90
2023-03-31T01:17:17.409Z,2.21
2023-03-31T01:18:17.413Z,2.14
2023-03-31T01:19:17.328Z,2.27
2023-03-31T01:20:17.346Z,2.06
2023-03-31T01:21:17.427Z,1.98
2023-03-31T01:22:17.326Z,2.39
2023-03-31T01:23:17.527Z,2.32
2023-03-31T01:24:17.332Z,2.29
2023-03-31T01:25:17.332Z,2.24
2023-03-31T01:26:17.333Z,2.00
2023-03-31T01:27:17.326Z,2.29
2023-03-31T01:28:17.333Z,2.16
2023-03-31T01:29:17.328Z,2.27
2023-03-31T01:30:17.329Z,2.46
2023-03-31T01:31:17.366Z,2.26
2023-03-31T01:32:17.359Z,2.28
2023-03-31T01:33:17.348Z,1.88
2023-03-31T01:34:17.352Z,2.33
2023-03-31T01:35:17.364Z,2.41
2023-03-31T01:36:17.415Z,2.36
2023-03-31T01:37:17.398Z,2.52
2023-03-31T01:38:18.376Z,2.16
2023-03-31T01:39:17.438Z,2.11
2023-03-31T01:40:17.422Z,1.93
2023-03-31T01:41:18.670Z,2.60
2023-03-31T01:42:17.440Z,2.46
2023-03-31T01:43:17.452Z,2.56
2023-03-31T01:44:17.473Z,1.99
2023-03-31T01:45:17.488Z,2.23
2023-03-31T01:46:17.530Z,2.41
2023-03-31T01:47:17.507Z,2.28
2023-03-31T01:48:17.550Z,2.42
2023-03-31T01:49:17.542Z,2.47
2023-03-31T01:50:17.545Z,2.65
2023-03-31T01:51:17.554Z,2.19
2023-03-31T01:52:17.711Z,2.57
2023-03-31T01:53:17.569Z,2.16
2023-03-31T01:54:17.589Z,2.21
2023-03-31T01:55:17.599Z,2.32
2023-03-31T01:56:17.605Z,2.52
2023-03-31T01:57:17.659Z,2.15
2023-03-31T01:58:17.631Z,2.45
2023-03-31T01:59:18.527Z,2.31
2023-03-31T02:00:17.649Z,2.01
2023-03-31T02:01:17.699Z,2.44
2023-03-31T02:02:17.878Z,2.57
2023-03-31T02:03:18.636Z,2.55
2023-03-31T02:04:17.731Z,2.19
2023-03-31T02:05:17.712Z,2.85
2023-03-31T02:06:17.726Z,2.16
2023-03-31T02:07:17.732Z,2.74
2023-03-31T02:08:17.739Z,2.70
2023-03-31T02:09:17.765Z,2.43
2023-03-31T02:10:17.779Z,2.33
2023-03-31T02:11:17.789Z,2.04
2023-03-31T02:12:17.795Z,2.44
2023-03-31T02:13:17.818Z,2.12
2023-03-31T02:14:17.824Z,2.10
2023-03-31T02:15:17.832Z,2.16
2023-03-31T02:16:17.911Z,2.22
2023-03-31T02:17:17.860Z,2.28
2023-03-31T02:18:17.865Z,2.13
2023-03-31T02:19:17.879Z,2.19
2023-03-31T02:20:17.925Z,2.20
2023-03-31T02:21:17.919Z,2.21
2023-03-31T02:22:17.922Z,2.43
2023-03-31T02:23:18.052Z,2.30
2023-03-31T02:24:17.956Z,2.55
2023-03-31T02:25:17.983Z,2.57
2023-03-31T02:26:17.987Z,2.59
2023-03-31T02:27:17.977Z,2.11
2023-03-31T02:28:17.998Z,2.29
2023-03-31T02:29:18.011Z,2.55
2023-03-31T02:30:18.025Z,2.30
2023-03-31T02:31:18.070Z,3.01
2023-03-31T02:32:18.049Z,2.57
2023-03-31T02:33:18.062Z,2.33
2023-03-31T02:34:18.085Z,2.23
2023-03-31T02:35:18.149Z,2.47
2023-03-31T02:36:18.644Z,2.37
2023-03-31T02:37:18.117Z,2.35
2023-03-31T02:38:18.127Z,2.18
2023-03-31T02:39:18.144Z,2.15
2023-03-31T02:40:18.168Z,2.77
2023-03-31T02:41:18.180Z,2.37
2023-03-31T02:42:18.211Z,2.26
2023-03-31T02:43:18.204Z,2.41
2023-03-31T02:44:18.229Z,2.87
2023-03-31T02:45:18.250Z,2.49
2023-03-31T02:46:18.281Z,2.77
2023-03-31T02:47:18.263Z,2.21
2023-03-31T02:48:18.275Z,2.58
2023-03-31T02:49:18.297Z,2.25
2023-03-31T02:50:18.300Z,2.00
2023-03-31T02:51:18.316Z,2.58
2023-03-31T02:52:18.347Z,2.63
2023-03-31T02:53:18.546Z,2.75
2023-03-31T02:54:18.351Z,2.70
2023-03-31T02:55:19.048Z,2.31
2023-03-31T02:56:18.381Z,2.19
2023-03-31T02:57:18.422Z,2.29
2023-03-31T02:58:18.482Z,2.37
2023-03-31T02:59:18.427Z,2.55
2023-03-31T03:00:18.439Z,2.28
2023-03-31T03:01:18.495Z,2.50
2023-03-31T03:02:18.506Z,2.35
2023-03-31T03:03:18.489Z,2.44
2023-03-31T03:04:18.489Z,2.50
2023-03-31T03:05:18.507Z,2.26
2023-03-31T03:06:18.517Z,2.39
2023-03-31T03:07:18.532Z,2.59
2023-03-31T03:08:18.574Z,2.66
2023-03-31T03:09:18.556Z,2.32
2023-03-31T03:10:18.563Z,2.38
2023-03-31T03:11:18.573Z,2.27
2023-03-31T03:12:18.584Z,2.70
2023-03-31T03:13:19.068Z,2.18
2023-03-31T03:14:18.617Z,2.64
2023-03-31T03:15:19.058Z,2.26
2023-03-31T03:16:18.654Z,2.54
2023-03-31T03:17:18.647Z,2.09
2023-03-31T03:18:18.663Z,2.72
2023-03-31T03:19:18.676Z,1.94
2023-03-31T03:20:18.693Z,1.88
2023-03-31T03:21:18.703Z,2.62
2023-03-31T03:22:18.742Z,2.48
2023-03-31T03:23:18.758Z,2.22
2023-03-31T03:24:18.795Z,2.49
2023-03-31T03:25:18.770Z,2.51
2023-03-31T03:26:18.788Z,2.53
2023-03-31T03:27:18.806Z,2.15
2023-03-31T03:28:18.810Z,2.55
2023-03-31T03:29:18.820Z,2.34
2023-03-31T03:30:18.836Z,2.47
2023-03-31T03:31:19.578Z,2.70
2023-03-31T03:32:18.866Z,2.44
2023-03-31T03:33:18.940Z,2.05
2023-03-31T03:34:21.568Z,2.38
2023-03-31T03:35:25.562Z,2.03
2023-03-31T03:36:18.907Z,2.09
2023-03-31T03:37:18.901Z,2.22
2023-03-31T03:38:18.907Z,2.09
2023-03-31T03:39:18.922Z,2.24
2023-03-31T03:40:19.600Z,2.33
2023-03-31T03:41:18.934Z,2.08
2023-03-31T03:42:18.946Z,2.11
2023-03-31T03:43:18.930Z,2.60
2023-03-31T03:44:18.982Z,2.46
2023-03-31T03:45:18.971Z,2.52
2023-03-31T03:46:18.991Z,2.55
2023-03-31T03:47:18.969Z,2.15
2023-03-31T03:48:18.961Z,2.32
2023-03-31T03:49:18.965Z,2.02
2023-03-31T03:50:18.960Z,2.74
2023-03-31T03:51:18.959Z,2.59
2023-03-31T03:52:18.963Z,2.78
2023-03-31T03:53:18.954Z,2.30
2023-03-31T03:54:18.956Z,2.76
2023-03-31T03:55:18.953Z,2.39
2023-03-31T03:56:18.990Z,2.55
2023-03-31T03:57:19.025Z,2.54
2023-03-31T03:58:19.088Z,2.22
2023-03-31T03:59:18.959Z,1.96
2023-03-31T04:00:18.962Z,1.98
2023-03-31T04:01:19.573Z,3.10
2023-03-31T04:02:19.610Z,1.93
2023-03-31T04:03:18.999Z,2.30
2023-03-31T04:04:18.952Z,1.88
2023-03-31T04:05:18.998Z,2.41
2023-03-31T04:06:18.954Z,2.24
2023-03-31T04:07:18.958Z,2.17
2023-03-31T04:08:19.570Z,2.91
2023-03-31T04:09:18.964Z,2.36
2023-03-31T04:10:18.946Z,2.27
2023-03-31T04:11:19.362Z,2.68
2023-03-31T04:12:18.975Z,2.08
2023-03-31T04:13:19.024Z,2.14
2023-03-31T04:14:19.568Z,2.47
2023-03-31T04:15:18.945Z,2.32
2023-03-31T04:16:19.009Z,2.35
2023-03-31T04:17:18.956Z,2.19
2023-03-31T04:18:18.955Z,2.52
2023-03-31T04:19:18.958Z,2.37
2023-03-31T04:20:18.945Z,2.05
2023-03-31T04:21:18.974Z,2.18
2023-03-31T04:22:18.950Z,2.14
2023-03-31T04:23:18.954Z,2.58
2023-03-31T04:24:19.497Z,2.13
2023-03-31T04:25:18.951Z,2.24
2023-03-31T04:26:18.968Z,2.81
2023-03-31T04:27:18.957Z,2.51
2023-03-31T04:28:18.997Z,2.25
2023-03-31T04:29:18.992Z,2.40
2023-03-31T04:30:19.011Z,2.32
2023-03-31T04:31:19.088Z,2.30
2023-03-31T04:32:19.064Z,2.36
2023-03-31T04:33:19.086Z,2.48
2023-03-31T04:34:19.090Z,2.40
2023-03-31T04:35:19.111Z,2.54
2023-03-31T04:36:19.137Z,2.11
2023-03-31T04:37:19.141Z,2.50
2023-03-31T04:38:19.149Z,2.50
2023-03-31T04:39:19.184Z,2.18
2023-03-31T04:40:19.202Z,2.31
2023-03-31T04:41:19.226Z,2.36
2023-03-31T04:42:19.585Z,2.64
2023-03-31T04:43:19.261Z,2.83
2023-03-31T04:44:20.104Z,2.26
2023-03-31T04:45:19.303Z,2.47
2023-03-31T04:46:19.367Z,2.40
2023-03-31T04:47:19.339Z,2.07
2023-03-31T04:48:19.362Z,2.31
2023-03-31T04:49:19.370Z,2.29
2023-03-31T04:50:19.382Z,2.09
2023-03-31T04:51:19.395Z,2.35
2023-03-31T04:52:19.423Z,2.58
2023-03-31T04:53:19.436Z,2.33
2023-03-31T04:54:19.455Z,2.67
2023-03-31T04:55:19.477Z,2.65
2023-03-31T04:56:19.498Z,2.38
2023-03-31T04:57:19.615Z,2.04
2023-03-31T04:58:19.580Z,2.29
2023-03-31T04:59:19.578Z,2.49
2023-03-31T05:00:19.612Z,2.53
2023-03-31T05:01:19.623Z,2.69
2023-03-31T05:02:19.705Z,2.73
2023-03-31T05:03:19.757Z,2.18
2023-03-31T05:04:19.661Z,2.51
2023-03-31T05:05:19.705Z,2.76
2023-03-31T05:06:19.704Z,2.39
2023-03-31T05:07:19.723Z,2.19
2023-03-31T05:08:19.753Z,3.23
2023-03-31T05:09:19.772Z,2.63
2023-03-31T05:10:19.786Z,2.55
2023-03-31T05:11:19.803Z,2.42
2023-03-31T05:12:19.830Z,2.33
2023-03-31T05:13:19.843Z,2.35
2023-03-31T05:14:19.858Z,2.58
2023-03-31T05:15:19.887Z,2.37
2023-03-31T05:16:19.955Z,2.44
2023-03-31T05:17:20.105Z,2.34
2023-03-31T05:18:22.600Z,2.54
2023-03-31T05:19:19.979Z,2.40
2023-03-31T05:20:20.023Z,2.52
2023-03-31T05:21:19.942Z,2.19
2023-03-31T05:22:19.928Z,2.58
2023-03-31T05:23:19.938Z,2.21
2023-03-31T05:24:19.932Z,2.12
2023-03-31T05:25:19.930Z,2.55
2023-03-31T05:26:19.940Z,2.79
2023-03-31T05:27:20.627Z,1.99
2023-03-31T05:28:19.938Z,2.37
2023-03-31T05:29:19.932Z,2.59
2023-03-31T05:30:19.952Z,2.20
2023-03-31T05:31:19.990Z,2.16
2023-03-31T05:32:19.973Z,2.53
2023-03-31T05:33:20.113Z,2.55
2023-03-31T05:34:19.993Z,2.34
2023-03-31T05:35:19.951Z,2.66
2023-03-31T05:36:20.223Z,2.14
2023-03-31T05:37:19.966Z,2.33
2023-03-31T05:38:19.957Z,2.22
2023-03-31T05:39:19.962Z,2.47
2023-03-31T05:40:19.955Z,2.46
2023-03-31T05:41:20.121Z,2.71
2023-03-31T05:42:19.949Z,2.44
2023-03-31T05:43:20.113Z,2.65
2023-03-31T05:44:20.121Z,2.66
2023-03-31T05:45:19.961Z,2.49
2023-03-31T05:46:19.971Z,2.79
2023-03-31T05:47:19.943Z,2.45
2023-03-31T05:48:19.967Z,2.55
2023-03-31T05:49:20.127Z,2.38
2023-03-31T05:50:19.940Z,3.09
2023-03-31T05:51:19.911Z,2.56
2023-03-31T05:52:21.307Z,2.83
2023-03-31T05:53:20.121Z,2.75
2023-03-31T05:54:20.120Z,3.16
2023-03-31T05:55:19.928Z,2.50
2023-03-31T05:56:19.917Z,2.81
2023-03-31T05:57:20.201Z,3.66
2023-03-31T05:58:20.502Z,2.72
2023-03-31T05:59:20.463Z,3.17
2023-03-31T06:00:19.978Z,2.92
2023-03-31T06:01:20.045Z,3.09
2023-03-31T06:02:19.998Z,3.29
2023-03-31T06:03:20.541Z,3.50
2023-03-31T06:04:20.112Z,2.78
2023-03-31T06:05:20.033Z,2.62
2023-03-31T06:06:20.055Z,2.95
2023-03-31T06:07:20.049Z,2.58
2023-03-31T06:08:20.531Z,2.70
2023-03-31T06:09:20.070Z,3.05
2023-03-31T06:10:20.065Z,2.73
2023-03-31T06:11:20.083Z,3.01
2023-03-31T06:12:20.463Z,2.90
2023-03-31T06:13:20.517Z,3.03
2023-03-31T06:14:20.489Z,2.93
2023-03-31T06:15:20.504Z,2.90
2023-03-31T06:16:20.516Z,3.25
2023-03-31T06:17:20.495Z,2.78
2023-03-31T06:18:20.625Z,3.04
2023-03-31T06:19:20.500Z,2.65
2023-03-31T06:20:28.286Z,2.82
2023-03-31T06:21:20.500Z,2.83
2023-03-31T06:22:20.498Z,2.93
2023-03-31T06:23:20.630Z,2.79
2023-03-31T06:24:20.527Z,2.81
2023-03-31T06:25:20.510Z,2.65
2023-03-31T06:26:20.499Z,2.44
2023-03-31T06:27:20.507Z,2.67
2023-03-31T06:28:20.642Z,2.63
2023-03-31T06:29:20.521Z,2.49
2023-03-31T06:30:20.513Z,3.11
2023-03-31T06:31:21.546Z,2.61
2023-03-31T06:32:20.513Z,2.61
2023-03-31T06:33:20.634Z,2.62
2023-03-31T06:34:21.549Z,2.58
2023-03-31T06:35:20.512Z,2.80
2023-03-31T06:36:20.539Z,2.82
2023-03-31T06:37:20.502Z,2.69
2023-03-31T06:38:20.793Z,2.96
2023-03-31T06:39:20.512Z,2.77
2023-03-31T06:40:20.636Z,3.08
2023-03-31T06:41:20.660Z,2.71
2023-03-31T06:42:20.505Z,3.09
2023-03-31T06:43:20.636Z,2.98
2023-03-31T06:44:20.633Z,2.93
2023-03-31T06:45:20.538Z,2.11
2023-03-31T06:46:20.560Z,2.93
2023-03-31T06:47:20.558Z,2.96
2023-03-31T06:48:20.642Z,2.32
2023-03-31T06:49:20.509Z,3.06
2023-03-31T06:50:21.521Z,2.48
2023-03-31T06:51:53.393Z,3.28
2023-03-31T06:52:20.514Z,3.11
2023-03-31T06:53:21.787Z,3.05
2023-03-31T06:54:20.520Z,2.50
2023-03-31T06:55:20.509Z,2.66
2023-03-31T06:56:20.513Z,2.97
2023-03-31T06:57:20.519Z,2.81
2023-03-31T06:58:20.636Z,2.82
2023-03-31T06:59:20.649Z,2.84
2023-03-31T07:00:22.851Z,2.59
2023-03-31T07:01:20.586Z,2.65
2023-03-31T07:02:20.541Z,2.98
2023-03-31T07:03:20.636Z,2.61
2023-03-31T07:04:20.651Z,2.33
2023-03-31T07:05:20.551Z,2.18
2023-03-31T07:06:20.524Z,2.73
2023-03-31T07:07:20.576Z,2.46
2023-03-31T07:08:21.564Z,2.81
2023-03-31T07:09:20.528Z,2.17
2023-03-31T07:10:20.522Z,2.86
2023-03-31T07:11:23.145Z,2.85
2023-03-31T07:12:20.522Z,3.04
2023-03-31T07:13:20.647Z,2.66
2023-03-31T07:14:20.525Z,3.03
2023-03-31T07:15:20.534Z,2.87
2023-03-31T07:16:20.622Z,2.58
2023-03-31T07:17:20.538Z,2.61
2023-03-31T07:18:20.650Z,3.17
2023-03-31T07:19:20.526Z,2.80
2023-03-31T07:20:20.532Z,2.47
2023-03-31T07:21:20.527Z,2.81
2023-03-31T07:22:20.527Z,2.81
2023-03-31T07:23:20.676Z,2.88
2023-03-31T07:24:20.530Z,3.10
2023-03-31T07:25:20.527Z,2.59
2023-03-31T07:26:20.533Z,2.41
2023-03-31T07:27:20.539Z,2.73
2023-03-31T07:28:20.655Z,2.65
2023-03-31T07:29:20.561Z,3.15
2023-03-31T07:30:20.540Z,3.24
2023-03-31T07:31:20.576Z,2.46
2023-03-31T07:32:20.596Z,2.39
2023-03-31T07:33:20.678Z,2.76
2023-03-31T07:34:20.533Z,2.73
2023-03-31T07:35:20.543Z,2.79
2023-03-31T07:36:21.236Z,2.38
2023-03-31T07:37:20.539Z,2.54
2023-03-31T07:38:20.668Z,2.62
2023-03-31T07:39:20.714Z,2.44
2023-03-31T07:40:20.659Z,2.41
2023-03-31T07:41:20.552Z,2.70
2023-03-31T07:42:20.542Z,2.94
2023-03-31T07:43:20.541Z,2.90
2023-03-31T07:44:20.660Z,2.80
2023-03-31T07:45:20.668Z,2.73
2023-03-31T07:46:20.640Z,2.72
2023-03-31T07:47:20.541Z,2.99
2023-03-31T07:48:20.574Z,2.83
2023-03-31T07:49:20.681Z,3.03
2023-03-31T07:50:20.559Z,2.92
2023-03-31T07:51:20.547Z,2.80
2023-03-31T07:52:20.546Z,3.04
2023-03-31T07:53:20.553Z,3.35
2023-03-31T07:54:20.655Z,2.78
2023-03-31T07:55:20.732Z,3.23
2023-03-31T07:56:20.553Z,3.10
2023-03-31T07:57:20.587Z,3.28
2023-03-31T07:58:20.658Z,3.18
2023-03-31T07:59:20.553Z,3.30
2023-03-31T08:00:20.443Z,3.17
2023-03-31T08:01:20.506Z,2.76
2023-03-31T08:02:20.650Z,3.82
2023-03-31T08:03:20.732Z,2.82
2023-03-31T08:04:21.234Z,2.75
2023-03-31T08:05:20.675Z,3.01
2023-03-31T08:06:20.705Z,3.47
2023-03-31T08:07:20.735Z,2.89
2023-03-31T08:08:21.197Z,3.26
2023-03-31T08:09:21.166Z,3.15
2023-03-31T08:10:20.862Z,4.19
2023-03-31T08:11:21.332Z,4.89
2023-03-31T08:12:21.171Z,5.09
2023-03-31T08:13:20.946Z,5.04
2023-03-31T08:14:30.394Z,5.27
2023-03-31T08:15:20.984Z,5.30
2023-03-31T08:16:21.004Z,6.37
2023-03-31T08:17:20.975Z,5.87
2023-03-31T08:18:20.978Z,5.94
2023-03-31T08:19:20.943Z,6.81
2023-03-31T08:20:20.951Z,7.20
2023-03-31T08:21:24.254Z,6.14
2023-03-31T08:22:20.951Z,6.47
2023-03-31T08:23:20.948Z,6.65
2023-03-31T08:24:21.669Z,7.04
2023-03-31T08:25:21.501Z,6.65
2023-03-31T08:26:21.172Z,7.12
2023-03-31T08:27:20.985Z,7.08
2023-03-31T08:28:20.936Z,6.22
2023-03-31T08:29:20.967Z,7.24
2023-03-31T08:30:21.365Z,7.63
2023-03-31T08:31:26.684Z,7.62
2023-03-31T08:32:20.958Z,8.25
2023-03-31T08:33:20.947Z,8.32
2023-03-31T08:34:20.951Z,7.78
2023-03-31T08:35:21.195Z,8.42
2023-03-31T08:36:20.978Z,7.84
2023-03-31T08:37:21.559Z,7.02
2023-03-31T08:38:21.677Z,7.73
2023-03-31T08:39:20.959Z,6.55
2023-03-31T08:40:21.674Z,7.96
2023-03-31T08:41:20.950Z,7.57
2023-03-31T08:42:21.537Z,7.46
2023-03-31T08:43:20.973Z,7.13
2023-03-31T08:44:20.945Z,7.19
2023-03-31T08:45:21.539Z,6.85
2023-03-31T08:46:21.715Z,6.68
2023-03-31T08:47:21.686Z,6.92
2023-03-31T08:48:20.939Z,5.85
2023-03-31T08:49:23.675Z,6.15
2023-03-31T08:50:21.681Z,6.80
2023-03-31T08:51:23.679Z,6.84
2023-03-31T08:52:21.556Z,6.14
2023-03-31T08:53:21.977Z,6.43
2023-03-31T08:54:20.922Z,7.55
2023-03-31T08:55:20.911Z,7.61
2023-03-31T08:56:21.903Z,7.39
2023-03-31T08:57:20.937Z,6.62
2023-03-31T08:58:20.901Z,6.86
2023-03-31T08:59:21.540Z,6.64
2023-03-31T09:00:23.694Z,6.75
2023-03-31T09:01:23.805Z,6.25
2023-03-31T09:02:21.603Z,7.30
2023-03-31T09:03:20.943Z,6.59
2023-03-31T09:04:21.111Z,6.07
2023-03-31T09:05:22.125Z,6.61
2023-03-31T09:06:21.542Z,6.08
2023-03-31T09:07:20.886Z,6.19
2023-03-31T09:08:23.774Z,7.04
2023-03-31T09:09:25.069Z,6.58
2023-03-31T09:10:21.641Z,6.46
2023-03-31T09:11:20.856Z,6.71
2023-03-31T09:12:20.863Z,6.22
2023-03-31T09:13:21.553Z,6.18
2023-03-31T09:14:20.853Z,6.23
2023-03-31T09:15:20.926Z,5.67
2023-03-31T09:16:21.803Z,7.23
2023-03-31T09:17:20.917Z,6.51
2023-03-31T09:18:22.439Z,6.34
2023-03-31T09:19:20.859Z,6.43
2023-03-31T09:20:20.950Z,6.39
2023-03-31T09:21:20.882Z,6.67
2023-03-31T09:22:20.930Z,7.03
2023-03-31T09:23:21.560Z,6.45
2023-03-31T09:24:20.929Z,7.02
2023-03-31T09:25:20.866Z,6.87
2023-03-31T09:26:21.577Z,6.19
2023-03-31T09:27:20.903Z,6.73
2023-03-31T09:28:20.889Z,6.26
2023-03-31T09:29:21.198Z,6.81
2023-03-31T09:30:20.943Z,7.20
2023-03-31T09:31:20.979Z,6.98
2023-03-31T09:32:21.003Z,5.84
2023-03-31T09:33:20.901Z,7.06
2023-03-31T09:34:21.202Z,6.26
2023-03-31T09:35:20.911Z,6.67
2023-03-31T09:36:20.972Z,6.51
2023-03-31T09:37:20.995Z,6.32
2023-03-31T09:38:21.209Z,6.66
2023-03-31T09:39:20.972Z,5.92
2023-03-31T09:40:21.063Z,6.32
2023-03-31T09:41:21.073Z,7.09
2023-03-31T09:42:21.151Z,7.81
2023-03-31T09:43:21.221Z,7.28
2023-03-31T09:44:21.222Z,8.15
2023-03-31T09:45:21.238Z,8.06
2023-03-31T09:46:21.829Z,8.21
2023-03-31T09:47:21.759Z,8.06
2023-03-31T09:48:22.252Z,7.25
2023-03-31T09:49:21.711Z,7.81
2023-03-31T09:50:25.447Z,7.78
2023-03-31T09:51:21.472Z,8.64
2023-03-31T09:52:21.474Z,7.43
2023-03-31T09:53:21.503Z,7.10
2023-03-31T09:54:21.709Z,7.06
2023-03-31T09:55:32.468Z,6.48
2023-03-31T09:56:21.497Z,6.39
2023-03-31T09:57:21.551Z,6.98
2023-03-31T09:58:21.491Z,7.25
2023-03-31T09:59:21.485Z,7.11
2023-03-31T10:00:21.493Z,7.30
2023-03-31T10:01:21.524Z,7.62
2023-03-31T10:02:21.492Z,7.66
2023-03-31T10:03:21.521Z,7.39
2023-03-31T10:04:21.504Z,7.61
2023-03-31T10:05:21.715Z,7.76
2023-03-31T10:06:21.504Z,7.40
2023-03-31T10:07:21.499Z,7.64
2023-03-31T10:08:21.503Z,7.49
2023-03-31T10:09:21.506Z,7.55
2023-03-31T10:10:21.741Z,6.98
2023-03-31T10:11:21.515Z,7.77
2023-03-31T10:12:21.532Z,7.34
2023-03-31T10:13:21.538Z,7.80
2023-03-31T10:14:21.555Z,7.11
2023-03-31T10:15:22.214Z,7.53
2023-03-31T10:16:21.771Z,7.36
2023-03-31T10:17:21.557Z,8.97
2023-03-31T10:18:21.635Z,8.57
2023-03-31T10:19:22.289Z,8.47
2023-03-31T10:20:21.717Z,8.59
2023-03-31T10:21:21.587Z,8.29
2023-03-31T10:22:21.597Z,8.45
2023-03-31T10:23:22.242Z,8.96
2023-03-31T10:24:21.689Z,8.87
2023-03-31T10:25:22.221Z,9.41
2023-03-31T10:26:21.796Z,8.57
2023-03-31T10:27:22.234Z,8.61
2023-03-31T10:28:22.756Z,8.62
2023-03-31T10:29:21.933Z,8.85
2023-03-31T10:30:22.224Z,8.74
2023-03-31T10:31:22.132Z,8.46
2023-03-31T10:32:22.742Z,8.10
2023-03-31T10:33:23.539Z,8.40
2023-03-31T10:34:22.076Z,9.40
2023-03-31T10:35:22.260Z,9.05
2023-03-31T10:36:22.119Z,8.67
2023-03-31T10:37:22.117Z,7.98
2023-03-31T10:38:22.278Z,8.50
2023-03-31T10:39:22.154Z,8.75
2023-03-31T10:40:22.219Z,9.16
2023-03-31T10:41:22.833Z,8.80
2023-03-31T10:42:22.206Z,8.58
2023-03-31T10:43:22.230Z,8.51
2023-03-31T10:44:22.250Z,8.84
2023-03-31T10:45:35.769Z,8.04
2023-03-31T10:46:22.313Z,9.44
2023-03-31T10:47:22.320Z,9.17
2023-03-31T10:48:22.343Z,9.88
2023-03-31T10:49:22.352Z,10.01
2023-03-31T10:50:23.224Z,10.51
2023-03-31T10:51:22.421Z,10.02
2023-03-31T10:52:22.738Z,10.21
2023-03-31T10:53:22.449Z,9.07
2023-03-31T10:54:22.449Z,9.02
2023-03-31T10:55:22.485Z,9.20
2023-03-31T10:56:22.554Z,9.61
2023-03-31T10:57:22.637Z,8.68
2023-03-31T10:58:22.697Z,9.37
2023-03-31T10:59:22.780Z,8.94
2023-03-31T11:00:22.859Z,7.73
2023-03-31T11:01:22.956Z,8.23
2023-03-31T11:02:23.168Z,9.02
2023-03-31T11:03:23.232Z,8.60
2023-03-31T11:04:23.175Z,8.39
2023-03-31T11:05:26.307Z,8.54
2023-03-31T11:06:23.788Z,9.65
2023-03-31T11:07:23.654Z,8.42
2023-03-31T11:08:23.672Z,10.08
2023-03-31T11:09:23.652Z,9.63
2023-03-31T11:10:23.653Z,10.07
2023-03-31T11:11:23.746Z,10.58
2023-03-31T11:12:23.692Z,9.49
2023-03-31T11:13:23.702Z,9.18
2023-03-31T11:14:23.693Z,9.26
2023-03-31T11:15:24.304Z,8.77
2023-03-31T11:16:23.862Z,8.51
2023-03-31T11:17:23.842Z,8.45
2023-03-31T11:18:23.658Z,7.70
2023-03-31T11:19:23.675Z,8.95
2023-03-31T11:20:24.239Z,8.80
2023-03-31T11:21:23.782Z,8.52
2023-03-31T11:22:23.806Z,8.27
2023-03-31T11:23:23.766Z,8.69
2023-03-31T11:24:24.729Z,8.79
2023-03-31T11:25:24.672Z,9.01
2023-03-31T11:26:24.249Z,8.76
2023-03-31T11:27:23.947Z,8.90
2023-03-31T11:28:23.906Z,9.18
2023-03-31T11:29:23.940Z,8.87
2023-03-31T11:30:24.627Z,9.16
2023-03-31T11:31:24.076Z,8.11
2023-03-31T11:32:24.026Z,8.56
2023-03-31T11:33:24.063Z,7.22
2023-03-31T11:34:24.080Z,7.37
2023-03-31T11:35:24.106Z,8.15
2023-03-31T11:36:24.144Z,7.38
2023-03-31T11:37:24.292Z,8.31
2023-03-31T11:38:24.764Z,7.99
2023-03-31T11:39:24.666Z,7.21
2023-03-31T11:40:24.678Z,8.88
2023-03-31T11:41:24.739Z,8.70
2023-03-31T11:42:24.683Z,9.09
2023-03-31T11:43:24.666Z,9.43
2023-03-31T11:44:24.673Z,8.98
2023-03-31T11:45:24.739Z,11.13
2023-03-31T11:46:24.819Z,12.01
2023-03-31T11:47:24.848Z,11.73
2023-03-31T11:48:24.896Z,13.01
2023-03-31T11:49:24.951Z,13.95
2023-03-31T11:50:25.749Z,13.86
2023-03-31T11:51:25.078Z,12.93
2023-03-31T11:52:25.245Z,12.01
2023-03-31T11:53:25.243Z,11.86
2023-03-31T11:54:25.324Z,12.16
2023-03-31T11:55:25.376Z,11.28
2023-03-31T11:56:25.476Z,11.62
2023-03-31T11:57:25.568Z,11.48
2023-03-31T11:58:25.606Z,11.81
2023-03-31T11:59:25.665Z,11.12
2023-03-31T12:00:25.748Z,11.24
2023-03-31T12:01:25.832Z,12.91
2023-03-31T12:02:25.950Z,12.48
2023-03-31T12:03:26.353Z,11.98
2023-03-31T12:04:26.072Z,10.64
2023-03-31T12:05:26.789Z,13.26
2023-03-31T12:06:26.276Z,11.22
2023-03-31T12:07:26.334Z,10.63
2023-03-31T12:08:26.436Z,10.64
2023-03-31T12:09:26.490Z,9.84
2023-03-31T12:10:26.602Z,9.42
2023-03-31T12:11:26.753Z,8.14
2023-03-31T12:12:26.725Z,7.11
2023-03-31T12:13:26.810Z,5.67
2023-03-31T12:14:26.891Z,5.99
2023-03-31T12:15:26.979Z,5.81
2023-03-31T12:16:27.125Z,7.00
2023-03-31T12:17:27.250Z,5.55
2023-03-31T12:18:27.317Z,5.86
2023-03-31T12:19:27.294Z,6.04
2023-03-31T12:20:27.347Z,5.99
2023-03-31T12:21:27.408Z,7.35
2023-03-31T12:22:27.491Z,6.57
2023-03-31T12:23:27.566Z,7.30
2023-03-31T12:24:27.629Z,8.02
2023-03-31T12:25:27.689Z,7.14
2023-03-31T12:26:27.801Z,7.31
2023-03-31T12:27:28.268Z,6.39
2023-03-31T12:28:27.910Z,6.16
2023-03-31T12:29:27.963Z,6.63
2023-03-31T12:30:28.058Z,6.89
2023-03-31T12:31:28.196Z,7.09
2023-03-31T12:32:28.275Z,6.32
2023-03-31T12:33:28.344Z,6.84
2023-03-31T12:34:28.438Z,6.66
2023-03-31T12:35:28.506Z,6.39
2023-03-31T12:36:28.711Z,6.74
2023-03-31T12:37:28.769Z,6.52
2023-03-31T12:38:28.757Z,6.10
2023-03-31T12:39:28.824Z,6.80
2023-03-31T12:40:28.887Z,6.49
2023-03-31T12:41:28.944Z,6.99
2023-03-31T12:42:29.297Z,6.19
2023-03-31T12:43:29.172Z,5.96
2023-03-31T12:44:29.120Z,6.35
2023-03-31T12:45:29.202Z,6.49
2023-03-31T12:46:29.249Z,6.46
2023-03-31T12:47:29.882Z,6.42
2023-03-31T12:48:29.721Z,6.93
2023-03-31T12:49:29.715Z,6.60
2023-03-31T12:50:29.725Z,6.94
2023-03-31T12:51:29.725Z,6.11
2023-03-31T12:52:29.769Z,6.80
2023-03-31T12:53:29.729Z,6.39
2023-03-31T12:54:29.736Z,6.20
2023-03-31T12:55:29.763Z,6.24
2023-03-31T12:56:29.795Z,5.77
2023-03-31T12:57:30.404Z,6.73
2023-03-31T12:58:32.730Z,6.63
2023-03-31T12:59:29.889Z,6.18
2023-03-31T13:00:30.302Z,6.58
2023-03-31T13:01:29.941Z,6.31
2023-03-31T13:02:30.836Z,6.07
2023-03-31T13:03:29.989Z,6.15
2023-03-31T13:04:30.004Z,5.90
2023-03-31T13:05:30.041Z,5.52
2023-03-31T13:06:30.049Z,5.42
2023-03-31T13:07:30.276Z,6.29
2023-03-31T13:08:30.095Z,5.75
2023-03-31T13:09:30.278Z,6.31
2023-03-31T13:10:30.209Z,5.46
2023-03-31T13:11:30.157Z,6.00
2023-03-31T13:12:30.173Z,5.16
2023-03-31T13:13:30.192Z,5.69
2023-03-31T13:14:30.301Z,6.03
2023-03-31T13:15:30.688Z,5.03
2023-03-31T13:16:30.801Z,5.50
2023-03-31T13:17:30.867Z,5.27